createdAt,value
2022-11-25T05:01:54.789Z,99.40
2022-11-25T05:06:18.039Z,99.45
2022-11-25T05:10:29.597Z,99.69
2022-11-25T05:14:42.408Z,99.95
2022-11-25T05:18:56.502Z,99.58
2022-11-25T05:23:09.266Z,99.81
2022-11-25T05:27:22.936Z,99.91
2022-11-25T05:31:34.655Z,100.00
2022-11-25T05:36:01.144Z,100.00
2022-11-25T05:40:19.889Z,100.00
2022-11-25T05:44:52.100Z,100.00
2022-11-25T05:49:03.778Z,100.00
2022-11-25T05:53:17.336Z,99.22
2022-11-25T05:57:31.321Z,99.50
2022-11-25T06:01:49.155Z,98.89
2022-11-25T06:06:00.824Z,98.80
2022-11-25T06:10:12.431Z,98.77
2022-11-25T06:14:25.884Z,99.56
2022-11-25T06:18:38.464Z,99.42
2022-11-25T06:22:52.170Z,100.00
2022-11-25T06:27:09.424Z,100.00
2022-11-25T06:31:24.720Z,100.00
2022-11-25T06:35:44.007Z,100.00
2022-11-25T06:39:55.504Z,100.00
2022-11-25T06:44:07.012Z,100.00
2022-11-25T06:48:18.537Z,100.00
2022-11-25T06:52:31.814Z,100.00
2022-11-25T06:56:43.357Z,100.00
2022-11-25T07:00:54.864Z,100.00
2022-11-25T07:05:06.509Z,100.00
2022-11-25T07:09:19.462Z,100.00
2022-11-25T07:13:31.118Z,100.00
2022-11-25T07:17:42.609Z,100.00
2022-11-25T07:21:54.152Z,100.00
2022-11-25T07:26:10.547Z,100.00
2022-11-25T07:34:53.589Z,100.00
2022-11-25T07:39:08.614Z,100.00
2022-11-25T07:43:20.112Z,100.00
2022-11-25T07:47:34.528Z,100.00
2022-11-25T07:51:51.587Z,100.00
2022-11-25T07:56:03.188Z,100.00
2022-11-25T08:00:15.314Z,100.00
2022-11-25T08:04:26.807Z,100.00
2022-11-25T08:08:39.404Z,100.00
2022-11-25T08:12:50.890Z,100.00
2022-11-25T08:17:04.466Z,100.00
2022-11-25T08:21:16.989Z,100.00
2022-11-25T08:25:29.718Z,100.00
2022-11-25T08:29:41.196Z,100.00
2022-11-25T08:33:54.168Z,100.00
2022-11-25T08:38:07.474Z,100.00
2022-11-25T08:42:18.997Z,100.00
2022-11-25T08:46:36.532Z,100.00
2022-11-25T08:50:51.805Z,100.00
2022-11-25T08:55:03.564Z,100.00
2022-11-25T08:59:15.137Z,100.00
2022-11-25T09:03:27.213Z,100.00
2022-11-25T09:07:38.818Z,100.00
2022-11-25T09:11:50.322Z,100.00
2022-11-25T09:16:02.146Z,100.00
2022-11-25T09:20:13.826Z,100.00
2022-11-25T09:24:25.346Z,100.00
2022-11-25T09:28:37.030Z,100.00
2022-11-25T09:32:50.201Z,100.00
2022-11-25T09:37:01.690Z,100.00
2022-11-25T09:41:39.142Z,100.00
2022-11-25T09:46:37.849Z,100.00
2022-11-25T09:51:03.434Z,100.00
2022-11-25T09:55:22.269Z,100.00
2022-11-25T09:59:55.448Z,100.00
2022-11-25T10:04:15.094Z,100.00
2022-11-25T10:08:34.064Z,100.00
2022-11-25T10:12:48.809Z,100.00
2022-11-25T10:17:06.419Z,100.00
2022-11-25T10:21:17.955Z,100.00
2022-11-25T10:25:42.651Z,100.00
2022-11-25T10:30:07.116Z,100.00
2022-11-25T10:34:32.008Z,100.00
2022-11-25T10:39:00.532Z,100.00
2022-11-25T10:43:16.300Z,100.00
2022-11-25T10:48:07.016Z,100.00
2022-11-25T10:52:22.248Z,99.81
2022-11-25T10:56:58.551Z,99.84
2022-11-25T11:01:15.708Z,99.11
2022-11-25T11:05:31.318Z,97.68
2022-11-25T11:09:42.808Z,96.97
2022-11-25T11:14:29.787Z,96.56
2022-11-25T11:18:41.818Z,96.40
2022-11-25T11:22:58.328Z,95.45
2022-11-25T11:27:09.953Z,95.16
2022-11-25T11:31:29.360Z,94.33
2022-11-25T11:35:46.812Z,92.61
2022-11-25T11:40:03.218Z,90.47
2022-11-25T11:44:56.741Z,90.34
2022-11-25T11:49:35.503Z,88.20
2022-11-25T11:54:03.290Z,86.97
2022-11-25T11:58:30.640Z,86.35
2022-11-25T12:03:02.666Z,86.06
2022-11-25T12:07:36.688Z,85.21
2022-11-25T12:12:02.101Z,85.76
2022-11-25T12:16:21.691Z,86.39
2022-11-25T12:20:50.794Z,85.87
2022-11-25T12:25:19.277Z,85.99
2022-11-25T12:29:55.638Z,84.79
2022-11-25T12:34:31.198Z,83.73
2022-11-25T12:39:00.355Z,83.49
2022-11-25T12:43:41.447Z,83.52
2022-11-25T12:47:53.593Z,83.40
2022-11-25T12:52:46.469Z,83.12
2022-11-25T12:57:18.585Z,83.23
2022-11-25T13:02:00.523Z,82.95
2022-11-25T13:06:54.677Z,83.74
2022-11-25T13:11:19.375Z,83.77
2022-11-25T13:15:38.735Z,83.33
2022-11-25T13:20:33.346Z,83.12
2022-11-25T13:24:45.043Z,83.19
2022-11-25T13:28:57.298Z,83.62
2022-11-25T13:33:11.868Z,83.76
2022-11-25T13:37:40.673Z,84.02
2022-11-25T13:42:20.768Z,83.75
2022-11-25T13:46:44.896Z,84.26
2022-11-25T13:51:21.091Z,82.64
2022-11-25T13:55:41.551Z,83.86
2022-11-25T14:00:10.261Z,83.72
2022-11-25T14:04:51.109Z,83.97
2022-11-25T14:09:35.172Z,83.77
2022-11-25T14:14:19.613Z,83.27
2022-11-25T14:24:05.762Z,82.58
2022-11-25T14:28:33.590Z,83.01
2022-11-25T14:32:57.555Z,82.89
2022-11-25T14:37:16.806Z,82.02
2022-11-25T14:41:34.067Z,80.06
2022-11-25T14:45:45.664Z,80.08
2022-11-25T14:50:26.601Z,81.01
2022-11-25T14:54:31.445Z,81.52
2022-11-25T14:58:48.529Z,82.03
2022-11-25T15:03:06.422Z,83.35
2022-11-25T15:07:27.726Z,83.50
2022-11-25T15:11:41.162Z,84.81
2022-11-25T15:15:55.734Z,83.31
2022-11-25T15:20:17.457Z,83.84
2022-11-25T15:24:40.224Z,84.49
2022-11-25T15:29:14.985Z,85.01
2022-11-25T15:33:28.553Z,85.18
2022-11-25T15:37:40.089Z,85.41
2022-11-25T15:41:56.169Z,86.03
2022-11-25T15:46:08.820Z,86.07
2022-11-25T15:50:24.028Z,86.11
2022-11-25T15:55:04.969Z,85.94
2022-11-25T15:59:45.908Z,86.68
2022-11-25T16:04:19.150Z,85.79
2022-11-25T16:08:37.578Z,85.87
2022-11-25T16:13:21.544Z,86.51
2022-11-25T16:17:37.564Z,86.29
2022-11-25T16:22:00.404Z,86.62
2022-11-25T16:26:11.849Z,86.09
2022-11-25T16:30:23.707Z,86.40
2022-11-25T16:34:35.465Z,86.79
2022-11-25T16:38:52.244Z,85.79
2022-11-25T16:43:03.921Z,87.18
2022-11-25T16:47:15.943Z,87.20
2022-11-25T16:51:29.711Z,87.66
2022-11-25T16:55:43.598Z,87.53
2022-11-25T17:00:01.057Z,87.49
2022-11-25T17:04:13.403Z,87.35
2022-11-25T17:08:25.094Z,87.98
2022-11-25T17:12:38.182Z,88.52
2022-11-25T17:16:50.487Z,89.09
2022-11-25T17:21:02.204Z,88.42
2022-11-25T17:25:14.078Z,88.73
2022-11-25T17:29:37.397Z,89.31
2022-11-25T17:33:49.868Z,90.07
2022-11-25T17:38:01.754Z,90.15
2022-11-25T17:42:16.505Z,90.69
2022-11-25T17:46:29.652Z,91.17
2022-11-25T17:50:41.679Z,92.28
2022-11-25T17:54:53.421Z,93.05
2022-11-25T17:59:13.022Z,92.54
2022-11-25T18:03:24.954Z,92.13
2022-11-25T18:07:36.534Z,92.48
2022-11-25T18:11:54.467Z,93.16
2022-11-25T18:16:07.581Z,93.46
2022-11-25T18:20:22.312Z,93.61
2022-11-25T18:24:33.793Z,93.94
2022-11-25T18:28:45.514Z,94.12
2022-11-25T18:32:57.397Z,94.58
2022-11-25T18:37:11.714Z,94.70
2022-11-25T18:41:23.321Z,94.90
2022-11-25T18:45:37.430Z,95.56
2022-11-25T18:49:55.150Z,95.26
2022-11-25T18:54:08.528Z,95.66
2022-11-25T18:58:24.330Z,95.58
2022-11-25T19:02:36.100Z,95.26
2022-11-25T19:06:47.690Z,95.39
2022-11-25T19:10:59.285Z,95.33
2022-11-25T19:15:17.105Z,95.45
2022-11-25T19:19:28.802Z,95.64
2022-11-25T19:23:41.535Z,95.24
2022-11-25T19:27:56.786Z,96.75
2022-11-25T19:32:20.581Z,97.15
2022-11-25T19:36:34.866Z,97.41
2022-11-25T19:40:46.454Z,98.32
2022-11-25T19:44:57.985Z,99.10
2022-11-25T19:49:12.682Z,99.09
2022-11-25T19:53:24.766Z,98.94
2022-11-25T19:57:38.442Z,99.35
2022-11-25T20:01:50.118Z,99.53
2022-11-25T20:06:01.814Z,99.61
2022-11-25T20:10:25.705Z,99.68
2022-11-25T20:14:37.438Z,100.00
2022-11-25T20:18:51.587Z,100.00
2022-11-25T20:23:16.188Z,100.00
2022-11-25T20:27:28.603Z,99.90
2022-11-25T20:31:40.175Z,100.00
2022-11-25T20:35:59.644Z,100.00
2022-11-25T20:40:17.362Z,100.00
2022-11-25T20:44:29.267Z,100.00
2022-11-25T20:48:40.843Z,100.00
2022-11-25T20:52:52.421Z,100.00
2022-11-25T20:57:09.065Z,100.00
2022-11-25T21:01:20.962Z,100.00
2022-11-25T21:05:32.530Z,100.00
2022-11-25T21:09:44.069Z,100.00
2022-11-25T21:13:55.563Z,100.00
2022-11-25T21:18:07.039Z,99.75
2022-11-25T21:22:20.713Z,99.64
2022-11-25T21:26:32.212Z,99.39
2022-11-25T21:30:43.755Z,99.75
2022-11-25T21:34:55.883Z,99.06
2022-11-25T21:39:16.581Z,98.42
2022-11-25T21:43:33.839Z,97.98
2022-11-25T21:47:45.317Z,97.37
2022-11-25T21:51:56.807Z,97.70
2022-11-25T21:56:23.312Z,97.45
2022-11-25T22:00:34.935Z,98.19
2022-11-25T22:04:46.943Z,97.24
2022-11-25T22:08:58.462Z,96.61
2022-11-25T22:13:16.230Z,96.74
2022-11-25T22:17:29.826Z,96.38
2022-11-25T22:21:41.339Z,96.48
2022-11-25T22:25:53.616Z,96.57
